Time,TemperatureF,DewpointF,PressureIn,WindDirection,WindDirectionDegrees,WindSpeedMPH,WindSpeedGustMPH,Humidity,HourlyPrecipIn,Conditions,Clouds,dailyrainin,SoftwareType,DateUTC
2013-02-07 00:01:00,57.9,57.1,29.95,ESE,119,0.0,3.0,97,0.00,,---,0.31,VWS V14.01,2013-02-07 06:01:00,
2013-02-07 00:06:00,57.8,57.0,29.95,ESE,119,0.0,3.0,97,0.00,,---,0.00,VWS V14.01,2013-02-07 06:06:00,
2013-02-07 00:11:00,57.6,56.8,29.95,ESE,120,0.0,0.0,97,0.00,,---,0.00,VWS V14.01,2013-02-07 06:11:00,
2013-02-07 00:16:00,57.6,56.8,29.95,ESE,120,0.0,0.0,97,0.00,,---,0.00,VWS V14.01,2013-02-07 06:16:00,
2013-02-07 00:21:00,57.6,56.8,29.94,ESE,120,0.0,1.0,97,0.00,,---,0.00,VWS V14.01,2013-02-07 06:21:00,
2013-02-07 00:26:00,57.4,56.6,29.94,ESE,119,0.0,1.0,97,0.00,,---,0.00,VWS V14.01,2013-02-07 06:26:00,
2013-02-07 00:31:00,57.1,56.3,29.93,ESE,120,0.0,1.0,97,0.00,,---,0.00,VWS V14.01,2013-02-07 06:31:00,
2013-02-07 00:36:00,56.8,56.0,29.93,ESE,120,0.0,1.0,97,0.00,,---,0.00,VWS V14.01,2013-02-07 06:36:00,
2013-02-07 00:41:00,56.6,55.8,29.93,ESE,119,0.0,0.0,97,0.00,,---,0.00,VWS V14.01,2013-02-07 06:41:00,
2013-02-07 00:46:00,56.3,55.5,29.93,ESE,119,0.0,0.0,97,0.00,,---,0.00,VWS V14.01,2013-02-07 06:46:00,
2013-02-07 00:51:00,55.9,55.1,29.93,ESE,120,0.0,0.0,97,0.00,,---,0.00,VWS V14.01,2013-02-07 06:51:00,
2013-02-07 00:56:00,55.6,54.8,29.93,ESE,119,0.0,0.0,97,0.00,,---,0.00,VWS V14.01,2013-02-07 06:56:00,
2013-02-07 01:01:00,55.6,54.8,29.93,ESE,120,0.0,0.0,97,0.00,,---,0.00,VWS V14.01,2013-02-07 07:01:00,
2013-02-07 01:06:00,55.3,54.5,29.94,ESE,120,0.0,0.0,97,0.00,,---,0.00,VWS V14.01,2013-02-07 07:06:00,
2013-02-07 01:12:00,55.3,54.8,29.94,ESE,120,0.0,0.0,98,0.00,,---,0.00,VWS V14.01,2013-02-07 07:12:00,
2013-02-07 01:17:00,54.9,54.1,29.93,ESE,119,0.0,0.0,97,0.00,,---,0.00,VWS V14.01,2013-02-07 07:17:00,
2013-02-07 01:22:00,54.4,53.6,29.93,ESE,119,0.0,0.0,97,0.00,,---,0.00,VWS V14.01,2013-02-07 07:22:00,
2013-02-07 01:27:00,54.4,53.6,29.93,ESE,119,0.0,0.0,97,0.00,,---,0.00,VWS V14.01,2013-02-07 07:27:00,
2013-02-07 01:32:00,54.2,53.7,29.93,ESE,120,0.0,1.0,98,0.00,,---,0.00,VWS V14.01,2013-02-07 07:32:00,
2013-02-07 01:37:00,54.1,53.5,29.93,ESE,120,0.0,0.0,98,0.00,,---,0.00,VWS V14.01,2013-02-07 07:37:00,
2013-02-07 01:42:00,54.1,53.5,29.93,ESE,120,0.0,0.0,98,0.00,,---,0.00,VWS V14.01,2013-02-07 07:42:00,
2013-02-07 01:47:00,53.7,52.9,29.93,ESE,119,0.0,0.0,97,0.00,,---,0.00,VWS V14.01,2013-02-07 07:47:00,
2013-02-07 01:52:00,53.6,53.0,29.94,ESE,120,0.0,0.0,98,0.00,,---,0.00,VWS V14.01,2013-02-07 07:52:00,
2013-02-07 01:57:00,53.4,52.8,29.93,ESE,120,0.0,0.0,98,0.00,,---,0.00,VWS V14.01,2013-02-07 07:57:00,
2013-02-07 02:02:00,53.3,52.8,29.93,ESE,120,0.0,0.0,98,0.00,,---,0.00,VWS V14.01,2013-02-07 08:02:00,
2013-02-07 02:07:00,53.0,52.5,29.93,ESE,120,0.0,0.0,98,0.00,,---,0.00,VWS V14.01,2013-02-07 08:07:00,
2013-02-07 02:12:00,53.0,52.5,29.93,ESE,119,0.0,0.0,98,0.00,,---,0.00,VWS V14.01,2013-02-07 08:12:00,
2013-02-07 02:17:00,52.9,52.3,29.93,ESE,120,0.0,0.0,98,0.00,,---,0.00,VWS V14.01,2013-02-07 08:17:00,
2013-02-07 02:22:00,52.5,52.0,29.93,ESE,119,0.0,0.0,98,0.01,,---,0.01,VWS V14.01,2013-02-07 08:22:00,
2013-02-07 02:27:00,52.4,51.8,29.93,ESE,120,0.0,0.0,98,0.01,,---,0.01,VWS V14.01,2013-02-07 08:27:00,
2013-02-07 02:32:00,52.6,52.0,29.92,ESE,120,0.0,0.0,98,0.01,,---,0.01,VWS V14.01,2013-02-07 08:32:00,
2013-02-07 02:36:00,52.3,51.8,29.92,ESE,119,0.0,0.0,98,0.01,,---,0.01,VWS V14.01,2013-02-07 08:36:00,
2013-02-07 02:37:00,52.3,51.8,29.92,ESE,120,0.0,0.0,98,0.01,,---,0.01,VWS V14.01,2013-02-07 08:37:00,
2013-02-07 02:42:00,52.4,51.8,29.92,ESE,119,0.0,0.0,98,0.01,,---,0.01,VWS V14.01,2013-02-07 08:42:00,
2013-02-07 02:47:00,52.2,51.7,29.92,ESE,119,0.0,0.0,98,0.01,,---,0.01,VWS V14.01,2013-02-07 08:47:00,
2013-02-07 02:52:00,52.2,51.7,29.92,ESE,120,0.0,0.0,98,0.01,,---,0.01,VWS V14.01,2013-02-07 08:52:00,
2013-02-07 02:57:00,51.9,51.4,29.91,ESE,120,0.0,0.0,98,0.01,,---,0.01,VWS V14.01,2013-02-07 08:57:00,
2013-02-07 03:02:00,51.8,51.3,29.91,ESE,120,0.0,0.0,98,0.01,,---,0.01,VWS V14.01,2013-02-07 09:02:00,
2013-02-07 03:06:00,51.6,51.1,29.91,ESE,119,0.0,0.0,98,0.01,,---,0.01,VWS V14.01,2013-02-07 09:06:00,
2013-02-07 03:07:00,51.6,51.1,29.91,ESE,120,0.0,0.0,98,0.01,,---,0.01,VWS V14.01,2013-02-07 09:07:00,
2013-02-07 03:12:00,51.6,51.1,29.91,ESE,119,0.0,0.0,98,0.01,,---,0.01,VWS V14.01,2013-02-07 09:12:00,
2013-02-07 03:17:00,51.2,50.7,29.91,ESE,120,0.0,0.0,98,0.01,,---,0.01,VWS V14.01,2013-02-07 09:17:00,
2013-02-07 03:22:00,51.1,50.6,29.91,ESE,120,0.0,0.0,98,0.01,,---,0.01,VWS V14.01,2013-02-07 09:22:00,
2013-02-07 03:27:00,51.5,51.0,29.91,ESE,120,0.0,0.0,98,0.01,,---,0.01,VWS V14.01,2013-02-07 09:27:00,
2013-02-07 03:32:00,51.7,51.2,29.91,ESE,120,0.0,0.0,98,0.01,,---,0.01,VWS V14.01,2013-02-07 09:32:00,
2013-02-07 03:36:00,51.9,51.4,29.91,ESE,120,0.0,0.0,98,0.01,,---,0.01,VWS V14.01,2013-02-07 09:36:00,
2013-02-07 03:37:00,51.9,51.4,29.91,ESE,120,0.0,0.0,98,0.00,,---,0.01,VWS V14.01,2013-02-07 09:37:00,
2013-02-07 03:42:00,52.0,51.5,29.91,ESE,119,0.0,1.0,98,0.00,,---,0.01,VWS V14.01,2013-02-07 09:42:00,
2013-02-07 03:47:00,52.1,51.5,29.91,ESE,119,0.0,1.0,98,0.00,,---,0.01,VWS V14.01,2013-02-07 09:47:00,
2013-02-07 03:52:00,52.3,51.8,29.91,ESE,120,0.0,1.0,98,0.00,,---,0.01,VWS V14.01,2013-02-07 09:52:00,
2013-02-07 03:57:00,52.5,52.0,29.91,ESE,120,0.0,1.0,98,0.00,,---,0.01,VWS V14.01,2013-02-07 09:57:00,
2013-02-07 04:02:00,52.8,52.2,29.91,ESE,120,0.0,1.0,98,0.00,,---,0.01,VWS V14.01,2013-02-07 10:02:00,
2013-02-07 04:06:00,53.0,52.5,29.91,ESE,120,0.0,1.0,98,0.00,,---,0.01,VWS V14.01,2013-02-07 10:06:00,
2013-02-07 04:07:00,53.0,52.5,29.91,ESE,120,0.0,0.0,98,0.00,,---,0.01,VWS V14.01,2013-02-07 10:07:00,
2013-02-07 04:12:00,53.2,52.7,29.91,ESE,120,0.0,0.0,98,0.00,,---,0.01,VWS V14.01,2013-02-07 10:12:00,
2013-02-07 04:17:00,53.3,52.8,29.91,ESE,119,1.0,1.0,98,0.00,,---,0.01,VWS V14.01,2013-02-07 10:17:00,
2013-02-07 04:22:00,53.5,53.0,29.91,ESE,120,0.0,1.0,98,0.00,,---,0.01,VWS V14.01,2013-02-07 10:22:00,
2013-02-07 04:27:00,53.7,53.2,29.91,ESE,119,0.0,1.0,98,0.00,,---,0.01,VWS V14.01,2013-02-07 10:27:00,
2013-02-07 04:32:00,53.9,53.3,29.91,ESE,119,0.0,1.0,98,0.00,,---,0.01,VWS V14.01,2013-02-07 10:32:00,
2013-02-07 04:36:00,54.1,53.5,29.91,ESE,119,0.0,1.0,98,0.00,,---,0.01,VWS V14.01,2013-02-07 10:36:00,
2013-02-07 04:37:00,54.1,53.5,29.91,ESE,120,0.0,0.0,98,0.00,,---,0.01,VWS V14.01,2013-02-07 10:37:00,
2013-02-07 04:42:00,54.2,53.7,29.91,ESE,119,0.0,0.0,98,0.00,,---,0.01,VWS V14.01,2013-02-07 10:42:00,
2013-02-07 04:47:00,54.4,53.8,29.91,ESE,120,0.0,0.0,98,0.00,,---,0.01,VWS V14.01,2013-02-07 10:47:00,
2013-02-07 04:52:00,54.5,54.0,29.91,ESE,119,0.0,0.0,98,0.00,,---,0.01,VWS V14.01,2013-02-07 10:52:00,
2013-02-07 04:57:00,54.6,54.0,29.90,ESE,120,0.0,0.0,98,0.00,,---,0.01,VWS V14.01,2013-02-07 10:57:00,
2013-02-07 05:02:00,54.8,54.2,29.90,ESE,120,0.0,0.0,98,0.00,,---,0.01,VWS V14.01,2013-02-07 11:02:00,
2013-02-07 05:07:00,54.7,54.2,29.90,ESE,120,0.0,0.0,98,0.00,,---,0.01,VWS V14.01,2013-02-07 11:07:00,
2013-02-07 05:12:00,54.8,54.2,29.90,ESE,120,0.0,0.0,98,0.00,,---,0.01,VWS V14.01,2013-02-07 11:12:00,
2013-02-07 05:17:00,54.8,54.2,29.90,ESE,119,0.0,0.0,98,0.00,,---,0.01,VWS V14.01,2013-02-07 11:17:00,
2013-02-07 05:23:00,54.9,54.3,29.90,ESE,119,0.0,0.0,98,0.00,,---,0.01,VWS V14.01,2013-02-07 11:23:00,
2013-02-07 05:28:00,54.9,54.3,29.90,ESE,120,0.0,0.0,98,0.00,,---,0.01,VWS V14.01,2013-02-07 11:28:00,
2013-02-07 05:33:00,55.0,54.5,29.90,ESE,120,0.0,0.0,98,0.00,,---,0.01,VWS V14.01,2013-02-07 11:33:00,
2013-02-07 05:36:00,55.1,54.5,29.90,ESE,120,0.0,0.0,98,0.00,,---,0.01,VWS V14.01,2013-02-07 11:36:00,
2013-02-07 05:38:00,55.1,54.5,29.90,ESE,119,0.0,0.0,98,0.00,,---,0.01,VWS V14.01,2013-02-07 11:38:00,
2013-02-07 05:43:00,55.2,54.7,29.91,ESE,119,0.0,1.0,98,0.00,,---,0.01,VWS V14.01,2013-02-07 11:43:00,
2013-02-07 05:48:00,55.2,54.7,29.91,ESE,119,0.0,1.0,98,0.00,,---,0.01,VWS V14.01,2013-02-07 11:48:00,
2013-02-07 05:53:00,55.2,54.7,29.91,ESE,120,0.0,1.0,98,0.00,,---,0.01,VWS V14.01,2013-02-07 11:53:00,
2013-02-07 05:58:00,55.3,54.8,29.91,ESE,120,0.0,1.0,98,0.00,,---,0.01,VWS V14.01,2013-02-07 11:58:00,
2013-02-07 06:03:00,55.3,54.8,29.90,ESE,119,0.0,1.0,98,0.00,,---,0.01,VWS V14.01,2013-02-07 12:03:00,
2013-02-07 06:06:00,55.3,54.8,29.91,ESE,119,0.0,1.0,98,0.00,,---,0.01,VWS V14.01,2013-02-07 12:06:00,
2013-02-07 06:08:00,55.3,54.8,29.91,ESE,119,0.0,0.0,98,0.00,,---,0.01,VWS V14.01,2013-02-07 12:08:00,
2013-02-07 06:13:00,55.4,55.1,29.91,ESE,119,0.0,0.0,99,0.00,,---,0.01,VWS V14.01,2013-02-07 12:13:00,
2013-02-07 06:18:00,55.5,55.2,29.91,ESE,120,0.0,0.0,99,0.00,,---,0.01,VWS V14.01,2013-02-07 12:18:00,
2013-02-07 06:23:00,55.6,55.3,29.91,ESE,119,0.0,0.0,99,0.00,,---,0.01,VWS V14.01,2013-02-07 12:23:00,
2013-02-07 06:28:00,55.6,55.3,29.91,ESE,120,0.0,0.0,99,0.00,,---,0.01,VWS V14.01,2013-02-07 12:28:00,
2013-02-07 06:33:00,55.7,55.4,29.92,ESE,120,1.0,2.0,99,0.00,,---,0.01,VWS V14.01,2013-02-07 12:33:00,
2013-02-07 06:38:00,55.8,55.2,29.92,ESE,120,0.0,1.0,98,0.00,,---,0.01,VWS V14.01,2013-02-07 12:38:00,
2013-02-07 06:43:00,55.8,55.2,29.92,ESE,120,0.0,1.0,98,0.00,,---,0.01,VWS V14.01,2013-02-07 12:43:00,
2013-02-07 06:48:00,55.8,55.2,29.93,ESE,120,0.0,1.0,98,0.00,,---,0.01,VWS V14.01,2013-02-07 12:48:00,
2013-02-07 06:53:00,55.8,55.2,29.93,NE,44,0.0,1.0,98,0.00,,---,0.01,VWS V14.01,2013-02-07 12:53:00,
2013-02-07 06:58:00,55.9,55.3,29.92,NW,307,0.0,1.0,98,0.00,,---,0.01,VWS V14.01,2013-02-07 12:58:00,
2013-02-07 07:03:00,56.0,55.5,29.93,North,350,0.0,1.0,98,0.00,,---,0.01,VWS V14.01,2013-02-07 13:03:00,
2013-02-07 07:06:00,56.0,55.5,29.93,North,350,0.0,1.0,98,0.00,,---,0.01,VWS V14.01,2013-02-07 13:06:00,
2013-02-07 07:08:00,56.1,55.8,29.93,North,350,0.0,0.0,99,0.00,,---,0.01,VWS V14.01,2013-02-07 13:08:00,
2013-02-07 07:13:00,56.0,55.5,29.93,North,350,0.0,0.0,98,0.00,,---,0.01,VWS V14.01,2013-02-07 13:13:00,
2013-02-07 07:18:00,56.1,55.5,29.93,North,350,0.0,0.0,98,0.00,,---,0.01,VWS V14.01,2013-02-07 13:18:00,
2013-02-07 07:23:00,56.1,55.8,29.93,North,350,0.0,0.0,99,0.00,,---,0.01,VWS V14.01,2013-02-07 13:23:00,
2013-02-07 07:28:00,56.2,55.9,29.93,North,350,0.0,0.0,99,0.00,,---,0.01,VWS V14.01,2013-02-07 13:28:00,
2013-02-07 07:33:00,56.3,56.0,29.94,North,350,0.0,0.0,99,0.00,,---,0.01,VWS V14.01,2013-02-07 13:33:00,
2013-02-07 07:38:00,56.4,56.1,29.94,North,350,0.0,0.0,99,0.00,,---,0.01,VWS V14.01,2013-02-07 13:38:00,
2013-02-07 07:43:00,56.6,56.0,29.94,North,350,0.0,0.0,98,0.00,,---,0.01,VWS V14.01,2013-02-07 13:43:00,
2013-02-07 07:48:00,56.7,56.1,29.94,North,350,0.0,0.0,98,0.00,,---,0.01,VWS V14.01,2013-02-07 13:48:00,
2013-02-07 07:53:00,56.6,56.0,29.94,North,350,0.0,0.0,98,0.00,,---,0.01,VWS V14.01,2013-02-07 13:53:00,
2013-02-07 07:58:00,56.8,56.5,29.94,North,350,0.0,0.0,99,0.00,,---,0.01,VWS V14.01,2013-02-07 13:58:00,
2013-02-07 08:03:00,56.9,56.6,29.94,North,350,0.0,0.0,99,0.00,,---,0.01,VWS V14.01,2013-02-07 14:03:00,
2013-02-07 08:06:00,57.0,56.7,29.94,North,350,0.0,0.0,99,0.00,,---,0.01,VWS V14.01,2013-02-07 14:06:00,
2013-02-07 08:08:00,57.1,56.8,29.94,North,355,0.0,0.0,99,0.00,,---,0.01,VWS V14.01,2013-02-07 14:08:00,
2013-02-07 08:13:00,57.4,57.1,29.94,NW,306,0.0,0.0,99,0.00,,---,0.01,VWS V14.01,2013-02-07 14:13:00,
2013-02-07 08:18:00,57.6,57.3,29.94,NW,306,0.0,0.0,99,0.00,,---,0.01,VWS V14.01,2013-02-07 14:18:00,
2013-02-07 08:23:00,57.5,57.2,29.95,NW,306,0.0,0.0,99,0.00,,---,0.01,VWS V14.01,2013-02-07 14:23:00,
2013-02-07 08:28:00,57.5,57.2,29.95,NW,306,0.0,1.0,99,0.00,,---,0.01,VWS V14.01,2013-02-07 14:28:00,
2013-02-07 08:33:00,57.5,57.2,29.95,West,268,0.0,1.0,99,0.00,,---,0.01,VWS V14.01,2013-02-07 14:33:00,
2013-02-07 08:36:00,57.6,57.3,29.96,WSW,250,1.0,2.0,99,0.00,,---,0.01,VWS V14.01,2013-02-07 14:36:00,
2013-02-07 08:43:00,57.7,57.4,29.96,West,268,0.0,2.0,99,0.00,,---,0.01,VWS V14.01,2013-02-07 14:43:00,
2013-02-07 08:48:00,57.9,57.6,29.96,West,268,0.0,2.0,99,0.00,,---,0.01,VWS V14.01,2013-02-07 14:48:00,
2013-02-07 08:53:00,57.9,57.6,29.96,West,267,0.0,2.0,99,0.00,,---,0.01,VWS V14.01,2013-02-07 14:53:00,
2013-02-07 08:58:00,57.9,57.6,29.96,West,268,0.0,2.0,99,0.00,,---,0.01,VWS V14.01,2013-02-07 14:58:00,
2013-02-07 09:03:00,58.3,58.0,29.96,West,267,0.0,2.0,99,0.00,,---,0.01,VWS V14.01,2013-02-07 15:03:00,
2013-02-07 09:08:00,58.5,58.2,29.96,West,268,0.0,2.0,99,0.00,,---,0.01,VWS V14.01,2013-02-07 15:08:00,
2013-02-07 09:13:00,58.8,58.5,29.97,West,268,0.0,2.0,99,0.00,,---,0.01,VWS V14.01,2013-02-07 15:13:00,
2013-02-07 09:18:00,58.6,58.3,29.97,West,268,2.0,2.0,99,0.00,,---,0.01,VWS V14.01,2013-02-07 15:18:00,
2013-02-07 09:24:00,58.7,58.4,29.97,West,267,0.0,2.0,99,0.00,,---,0.01,VWS V14.01,2013-02-07 15:24:00,
2013-02-07 09:29:00,59.0,58.4,29.97,West,268,1.0,3.0,98,0.00,,---,0.01,VWS V14.01,2013-02-07 15:29:00,
2013-02-07 09:34:00,59.2,58.9,29.97,West,268,1.0,3.0,99,0.00,,---,0.01,VWS V14.01,2013-02-07 15:34:00,
2013-02-07 09:36:00,59.4,59.1,29.97,West,268,0.0,3.0,99,0.00,,---,0.01,VWS V14.01,2013-02-07 15:36:00,
2013-02-07 09:39:00,59.5,58.9,29.97,West,268,1.0,2.0,98,0.00,,---,0.01,VWS V14.01,2013-02-07 15:39:00,
2013-02-07 09:44:00,59.6,59.0,29.97,West,272,1.0,3.0,98,0.00,,---,0.01,VWS V14.01,2013-02-07 15:44:00,
2013-02-07 09:49:00,59.9,59.3,29.97,WNW,287,0.0,3.0,98,0.00,,---,0.01,VWS V14.01,2013-02-07 15:49:00,
2013-02-07 09:54:00,60.4,59.8,29.97,WNW,288,2.0,3.0,98,0.00,,---,0.01,VWS V14.01,2013-02-07 15:54:00,
2013-02-07 09:59:00,60.4,59.5,29.97,WNW,287,0.0,3.0,97,0.00,,---,0.01,VWS V14.01,2013-02-07 15:59:00,
2013-02-07 10:04:00,60.7,59.8,29.97,West,267,2.0,3.0,97,0.00,,---,0.01,VWS V14.01,2013-02-07 16:04:00,
2013-02-07 10:06:00,60.7,59.8,29.97,West,267,1.0,3.0,97,0.00,,---,0.01,VWS V14.01,2013-02-07 16:06:00,
2013-02-07 10:09:00,60.7,59.6,29.97,West,267,1.0,1.0,96,0.00,,---,0.01,VWS V14.01,2013-02-07 16:09:00,
2013-02-07 10:14:00,60.8,59.1,29.97,West,279,0.0,3.0,94,0.00,,---,0.01,VWS V14.01,2013-02-07 16:14:00,
2013-02-07 10:19:00,61.5,59.5,29.97,WSW,243,1.0,4.0,93,0.00,,---,0.01,VWS V14.01,2013-02-07 16:19:00,
2013-02-07 10:24:00,61.7,59.7,29.98,WSW,240,2.0,5.0,93,0.00,,---,0.01,VWS V14.01,2013-02-07 16:24:00,
2013-02-07 10:29:00,61.6,59.3,29.98,WSW,238,4.0,5.0,92,0.00,,---,0.01,VWS V14.01,2013-02-07 16:29:00,
2013-02-07 10:34:00,61.7,59.4,29.98,West,277,3.0,5.0,92,0.00,,---,0.01,VWS V14.01,2013-02-07 16:34:00,
2013-02-07 10:36:00,61.9,59.2,29.98,WSW,256,2.0,5.0,91,0.00,,---,0.01,VWS V14.01,2013-02-07 16:36:00,
2013-02-07 10:39:00,61.9,58.9,29.98,WSW,241,2.0,5.0,90,0.00,,---,0.01,VWS V14.01,2013-02-07 16:39:00,
2013-02-07 10:44:00,62.0,58.4,29.98,West,278,4.0,5.0,88,0.00,,---,0.01,VWS V14.01,2013-02-07 16:44:00,
2013-02-07 10:49:00,62.0,58.4,29.98,West,273,4.0,5.0,88,0.00,,---,0.01,VWS V14.01,2013-02-07 16:49:00,
2013-02-07 10:54:00,62.0,58.7,29.98,West,259,1.0,5.0,89,0.00,,---,0.01,VWS V14.01,2013-02-07 16:54:00,
2013-02-07 10:59:00,61.9,58.3,29.98,WSW,248,3.0,5.0,88,0.00,,---,0.01,VWS V14.01,2013-02-07 16:59:00,
2013-02-07 11:04:00,62.0,58.7,29.98,West,269,4.0,5.0,89,0.00,,---,0.01,VWS V14.01,2013-02-07 17:04:00,
2013-02-07 11:06:00,62.1,58.8,29.98,West,269,3.0,5.0,89,0.00,,---,0.01,VWS V14.01,2013-02-07 17:06:00,
2013-02-07 11:14:00,62.3,58.4,29.98,WSW,248,3.0,5.0,87,0.00,,---,0.01,VWS V14.01,2013-02-07 17:14:00,
2013-02-07 11:19:00,62.3,58.1,29.98,WSW,240,3.0,5.0,86,0.00,,---,0.01,VWS V14.01,2013-02-07 17:19:00,
2013-02-07 11:24:00,62.3,58.1,29.98,WSW,256,2.0,5.0,86,0.00,,---,0.01,VWS V14.01,2013-02-07 17:24:00,
2013-02-07 11:29:00,62.5,58.3,29.98,WNW,288,3.0,5.0,86,0.00,,---,0.01,VWS V14.01,2013-02-07 17:29:00,
2013-02-07 11:34:00,62.8,58.2,29.98,WNW,292,1.0,6.0,85,0.00,,---,0.01,VWS V14.01,2013-02-07 17:34:00,
2013-02-07 11:36:00,62.8,57.9,29.98,WNW,284,3.0,6.0,84,0.00,,---,0.01,VWS V14.01,2013-02-07 17:36:00,
2013-02-07 11:39:00,62.7,57.5,29.98,WNW,287,0.0,5.0,83,0.00,,---,0.01,VWS V14.01,2013-02-07 17:39:00,
2013-02-07 11:44:00,62.8,57.9,29.98,West,263,3.0,5.0,84,0.00,,---,0.01,VWS V14.01,2013-02-07 17:44:00,
2013-02-07 11:49:00,62.8,57.9,29.98,West,265,2.0,6.0,84,0.00,,---,0.01,VWS V14.01,2013-02-07 17:49:00,
2013-02-07 11:54:00,63.0,58.1,29.98,WNW,300,5.0,6.0,84,0.00,,---,0.01,VWS V14.01,2013-02-07 17:54:00,
2013-02-07 11:59:00,63.2,58.3,29.97,WSW,241,1.0,6.0,84,0.00,,---,0.01,VWS V14.01,2013-02-07 17:59:00,
2013-02-07 12:04:00,63.9,59.3,29.97,West,280,0.0,6.0,85,0.00,,---,0.01,VWS V14.01,2013-02-07 18:04:00,
2013-02-07 12:06:00,64.5,59.9,29.97,West,274,3.0,6.0,85,0.00,,---,0.01,VWS V14.01,2013-02-07 18:06:00,
2013-02-07 12:09:00,64.2,58.6,29.97,West,263,4.0,6.0,82,0.00,,---,0.01,VWS V14.01,2013-02-07 18:09:00,
2013-02-07 12:14:00,63.8,59.2,29.97,NW,304,6.0,6.0,85,0.00,,---,0.01,VWS V14.01,2013-02-07 18:14:00,
2013-02-07 12:19:00,63.5,58.2,29.97,WNW,294,3.0,6.0,83,0.00,,---,0.01,VWS V14.01,2013-02-07 18:19:00,
2013-02-07 12:24:00,63.6,58.3,29.96,West,274,4.0,6.0,83,0.00,,---,0.01,VWS V14.01,2013-02-07 18:24:00,
2013-02-07 12:29:00,63.6,58.7,29.96,WNW,288,0.0,6.0,84,0.00,,---,0.01,VWS V14.01,2013-02-07 18:29:00,
2013-02-07 12:34:00,63.9,58.3,29.96,SW,221,3.0,6.0,82,0.00,,---,0.01,VWS V14.01,2013-02-07 18:34:00,
2013-02-07 12:36:00,63.8,58.2,29.96,NW,305,2.0,7.0,82,0.00,,---,0.01,VWS V14.01,2013-02-07 18:36:00,
2013-02-07 12:39:00,64.0,58.7,29.95,NW,315,4.0,6.0,83,0.00,,---,0.01,VWS V14.01,2013-02-07 18:39:00,
2013-02-07 12:44:00,64.0,58.4,29.95,West,267,5.0,9.0,82,0.00,,---,0.01,VWS V14.01,2013-02-07 18:44:00,
2013-02-07 12:49:00,63.9,58.0,29.95,SW,233,3.0,9.0,81,0.00,,---,0.01,VWS V14.01,2013-02-07 18:49:00,
2013-02-07 12:54:00,64.1,58.2,29.94,NW,306,2.0,9.0,81,0.00,,---,0.01,VWS V14.01,2013-02-07 18:54:00,
2013-02-07 12:59:00,64.3,58.3,29.94,West,263,4.0,9.0,81,0.00,,---,0.01,VWS V14.01,2013-02-07 18:59:00,
2013-02-07 13:04:00,64.1,58.2,29.94,WNW,298,3.0,9.0,81,0.00,,---,0.01,VWS V14.01,2013-02-07 19:04:00,
2013-02-07 13:06:00,64.5,59.2,29.94,NW,318,1.0,9.0,83,0.00,,---,0.01,VWS V14.01,2013-02-07 19:06:00,
2013-02-07 13:09:00,64.8,58.8,29.94,West,273,2.0,4.0,81,0.00,,---,0.01,VWS V14.01,2013-02-07 19:09:00,
2013-02-07 13:14:00,64.6,58.3,29.94,West,269,4.0,7.0,80,0.00,,---,0.01,VWS V14.01,2013-02-07 19:14:00,
2013-02-07 13:19:00,64.4,58.5,29.94,West,271,1.0,7.0,81,0.00,,---,0.01,VWS V14.01,2013-02-07 19:19:00,
2013-02-07 13:24:00,64.9,58.6,29.94,WNW,301,6.0,7.0,80,0.00,,---,0.01,VWS V14.01,2013-02-07 19:24:00,
2013-02-07 13:29:00,64.5,58.2,29.93,SW,230,2.0,7.0,80,0.00,,---,0.01,VWS V14.01,2013-02-07 19:29:00,
2013-02-07 13:34:00,64.2,57.9,29.93,WSW,249,3.0,7.0,80,0.00,,---,0.01,VWS V14.01,2013-02-07 19:34:00,
2013-02-07 13:36:00,64.2,57.9,29.93,WNW,286,3.0,7.0,80,0.00,,---,0.01,VWS V14.01,2013-02-07 19:36:00,
2013-02-07 13:39:00,64.3,58.3,29.93,West,259,2.0,5.0,81,0.00,,---,0.01,VWS V14.01,2013-02-07 19:39:00,
2013-02-07 13:44:00,65.1,59.1,29.93,NW,317,2.0,5.0,81,0.00,,---,0.01,VWS V14.01,2013-02-07 19:44:00,
2013-02-07 13:49:00,65.2,58.5,29.93,WSW,256,0.0,5.0,79,0.00,,---,0.01,VWS V14.01,2013-02-07 19:49:00,
2013-02-07 13:54:00,65.2,58.2,29.93,WNW,294,3.0,5.0,78,0.00,,---,0.01,VWS V14.01,2013-02-07 19:54:00,
2013-02-07 13:59:00,64.8,57.8,29.93,North,5,3.0,5.0,78,0.00,,---,0.01,VWS V14.01,2013-02-07 19:59:00,
2013-02-07 14:04:00,64.6,58.0,29.93,NW,304,1.0,5.0,79,0.00,,---,0.01,VWS V14.01,2013-02-07 20:04:00,
2013-02-07 14:06:00,64.7,58.4,29.93,WNW,303,0.0,5.0,80,0.00,,---,0.01,VWS V14.01,2013-02-07 20:06:00,
2013-02-07 14:09:00,65.2,58.9,29.93,West,261,2.0,3.0,80,0.00,,---,0.01,VWS V14.01,2013-02-07 20:09:00,
2013-02-07 14:14:00,64.8,57.8,29.93,WNW,298,2.0,5.0,78,0.00,,---,0.01,VWS V14.01,2013-02-07 20:14:00,
2013-02-07 14:19:00,65.0,58.0,29.93,WNW,288,4.0,7.0,78,0.00,,---,0.01,VWS V14.01,2013-02-07 20:19:00,
2013-02-07 14:24:00,64.8,58.1,29.93,WNW,287,1.0,7.0,79,0.00,,---,0.01,VWS V14.01,2013-02-07 20:24:00,
2013-02-07 14:30:00,64.5,57.5,29.93,West,262,1.0,7.0,78,0.00,,---,0.01,VWS V14.01,2013-02-07 20:30:00,
2013-02-07 14:35:00,64.3,57.7,29.92,West,271,0.0,7.0,79,0.00,,---,0.01,VWS V14.01,2013-02-07 20:35:00,
2013-02-07 14:36:00,64.2,57.6,29.92,West,271,0.0,7.0,79,0.00,,---,0.01,VWS V14.01,2013-02-07 20:36:00,
2013-02-07 14:40:00,64.5,58.5,29.92,West,265,1.0,1.0,81,0.00,,---,0.01,VWS V14.01,2013-02-07 20:40:00,
2013-02-07 14:45:00,65.8,58.4,29.92,WSW,246,0.0,3.0,77,0.00,,---,0.01,VWS V14.01,2013-02-07 20:45:00,
2013-02-07 14:50:00,66.8,59.0,29.91,SSW,204,2.0,4.0,76,0.00,,---,0.01,VWS V14.01,2013-02-07 20:50:00,
2013-02-07 14:55:00,67.1,58.9,29.91,WNW,299,2.0,6.0,75,0.00,,---,0.01,VWS V14.01,2013-02-07 20:55:00,
2013-02-07 15:00:00,68.1,59.1,29.91,WNW,285,4.0,8.0,73,0.00,,---,0.01,VWS V14.01,2013-02-07 21:00:00,
2013-02-07 15:05:00,67.0,58.5,29.91,WNW,290,3.0,8.0,74,0.00,,---,0.01,VWS V14.01,2013-02-07 21:05:00,
2013-02-07 15:06:00,66.9,58.3,29.91,WNW,291,1.0,8.0,74,0.00,,---,0.01,VWS V14.01,2013-02-07 21:06:00,
2013-02-07 15:10:00,66.2,57.7,29.91,WSW,237,0.0,4.0,74,0.00,,---,0.01,VWS V14.01,2013-02-07 21:10:00,
2013-02-07 15:15:00,65.6,58.2,29.91,WNW,290,2.0,4.0,77,0.00,,---,0.01,VWS V14.01,2013-02-07 21:15:00,
2013-02-07 15:20:00,66.5,58.7,29.91,WSW,244,2.0,4.0,76,0.00,,---,0.01,VWS V14.01,2013-02-07 21:20:00,
2013-02-07 15:25:00,67.1,58.5,29.91,WNW,292,5.0,5.0,74,0.00,,---,0.01,VWS V14.01,2013-02-07 21:25:00,
2013-02-07 15:30:00,67.6,59.0,29.91,North,350,2.0,7.0,74,0.00,,---,0.01,VWS V14.01,2013-02-07 21:30:00,
2013-02-07 15:35:00,67.9,58.9,29.91,WNW,298,0.0,7.0,73,0.00,,---,0.01,VWS V14.01,2013-02-07 21:35:00,
2013-02-07 15:40:00,68.4,59.4,29.91,West,266,5.0,7.0,73,0.00,,---,0.01,VWS V14.01,2013-02-07 21:40:00,
2013-02-07 15:45:00,68.1,59.1,29.91,West,281,4.0,8.0,73,0.00,,---,0.01,VWS V14.01,2013-02-07 21:45:00,
2013-02-07 15:50:00,67.8,58.5,29.91,West,279,5.0,9.0,72,0.00,,---,0.01,VWS V14.01,2013-02-07 21:50:00,
2013-02-07 15:55:00,67.5,58.9,29.91,NW,321,3.0,9.0,74,0.00,,---,0.01,VWS V14.01,2013-02-07 21:55:00,
2013-02-07 16:00:00,67.4,58.8,29.91,SW,221,5.0,9.0,74,0.00,,---,0.01,VWS V14.01,2013-02-07 22:00:00,
2013-02-07 16:05:00,67.2,59.0,29.91,West,277,3.0,9.0,75,0.00,,---,0.01,VWS V14.01,2013-02-07 22:05:00,
2013-02-07 16:06:00,67.3,59.1,29.91,WNW,290,3.0,9.0,75,0.00,,---,0.01,VWS V14.01,2013-02-07 22:06:00,
2013-02-07 16:10:00,67.8,58.8,29.91,SW,230,6.0,6.0,73,0.00,,---,0.01,VWS V14.01,2013-02-07 22:10:00,
2013-02-07 16:15:00,67.4,58.8,29.91,WNW,289,4.0,6.0,74,0.00,,---,0.01,VWS V14.01,2013-02-07 22:15:00,
2013-02-07 16:20:00,67.4,59.2,29.91,WNW,287,2.0,6.0,75,0.00,,---,0.01,VWS V14.01,2013-02-07 22:20:00,
2013-02-07 16:25:00,67.3,58.7,29.91,WNW,286,1.0,7.0,74,0.00,,---,0.01,VWS V14.01,2013-02-07 22:25:00,
2013-02-07 16:30:00,66.8,58.3,29.91,WNW,286,0.0,7.0,74,0.00,,---,0.01,VWS V14.01,2013-02-07 22:30:00,
2013-02-07 16:35:00,66.1,58.7,29.91,WNW,286,1.0,7.0,77,0.00,,---,0.01,VWS V14.01,2013-02-07 22:35:00,
2013-02-07 16:40:00,66.2,58.4,29.91,West,274,2.0,3.0,76,0.00,,---,0.01,VWS V14.01,2013-02-07 22:40:00,
2013-02-07 16:45:00,66.3,58.5,29.91,West,274,0.0,3.0,76,0.00,,---,0.01,VWS V14.01,2013-02-07 22:45:00,
2013-02-07 16:50:00,66.4,58.6,29.91,WSW,252,1.0,4.0,76,0.00,,---,0.01,VWS V14.01,2013-02-07 22:50:00,
2013-02-07 16:55:00,66.0,58.2,29.90,WSW,252,0.0,4.0,76,0.00,,---,0.01,VWS V14.01,2013-02-07 22:55:00,
2013-02-07 17:00:00,65.7,58.3,29.90,WSW,252,0.0,4.0,77,0.00,,---,0.01,VWS V14.01,2013-02-07 23:00:00,
2013-02-07 17:05:00,65.5,58.5,29.90,West,276,3.0,4.0,78,0.00,,---,0.01,VWS V14.01,2013-02-07 23:05:00,
2013-02-07 17:10:00,65.5,58.5,29.90,West,276,0.0,3.0,78,0.00,,---,0.01,VWS V14.01,2013-02-07 23:10:00,
2013-02-07 17:15:00,65.3,58.3,29.90,West,276,0.0,3.0,78,0.00,,---,0.01,VWS V14.01,2013-02-07 23:15:00,
2013-02-07 17:20:00,64.5,58.2,29.91,West,276,0.0,3.0,80,0.00,,---,0.01,VWS V14.01,2013-02-07 23:20:00,
2013-02-07 17:25:00,64.4,58.1,29.91,West,276,0.0,3.0,80,0.00,,---,0.01,VWS V14.01,2013-02-07 23:25:00,
2013-02-07 17:30:00,64.0,58.4,29.91,West,276,0.0,3.0,82,0.00,,---,0.01,VWS V14.01,2013-02-07 23:30:00,
2013-02-07 17:35:00,63.6,58.0,29.91,West,276,0.0,3.0,82,0.00,,---,0.01,VWS V14.01,2013-02-07 23:35:00,
2013-02-07 17:36:00,63.5,58.2,29.91,West,276,0.0,3.0,83,0.00,,---,0.01,VWS V14.01,2013-02-07 23:36:00,
2013-02-07 17:40:00,63.2,58.0,29.91,West,276,0.0,0.0,83,0.00,,---,0.01,VWS V14.01,2013-02-07 23:40:00,
2013-02-07 17:45:00,62.8,57.9,29.92,West,276,0.0,0.0,84,0.00,,---,0.01,VWS V14.01,2013-02-07 23:45:00,
2013-02-07 17:50:00,62.1,57.5,29.92,West,276,0.0,0.0,85,0.00,,---,0.01,VWS V14.01,2013-02-07 23:50:00,
2013-02-07 17:55:00,61.8,57.9,29.92,West,276,0.0,0.0,87,0.00,,---,0.01,VWS V14.01,2013-02-07 23:55:00,
2013-02-07 18:00:00,61.5,57.6,29.92,West,276,0.0,0.0,87,0.00,,---,0.01,VWS V14.01,2013-02-08 00:00:00,
2013-02-07 18:05:00,60.7,57.4,29.92,West,276,0.0,0.0,89,0.00,,---,0.01,VWS V14.01,2013-02-08 00:05:00,
2013-02-07 18:06:00,60.6,57.3,29.92,West,276,0.0,0.0,89,0.00,,---,0.01,VWS V14.01,2013-02-08 00:06:00,
2013-02-07 18:10:00,60.2,57.3,29.92,West,276,0.0,0.0,90,0.00,,---,0.01,VWS V14.01,2013-02-08 00:10:00,
2013-02-07 18:15:00,59.8,57.2,29.92,West,276,0.0,0.0,91,0.00,,---,0.01,VWS V14.01,2013-02-08 00:15:00,
2013-02-07 18:20:00,59.4,57.1,29.92,West,276,0.0,0.0,92,0.00,,---,0.01,VWS V14.01,2013-02-08 00:20:00,
2013-02-07 18:25:00,59.1,57.1,29.92,West,276,0.0,0.0,93,0.00,,---,0.01,VWS V14.01,2013-02-08 00:25:00,
2013-02-07 18:30:00,58.9,56.9,29.92,West,276,0.0,0.0,93,0.00,,---,0.01,VWS V14.01,2013-02-08 00:30:00,
2013-02-07 18:35:00,58.3,56.3,29.92,West,276,0.0,0.0,93,0.00,,---,0.01,VWS V14.01,2013-02-08 00:35:00,
2013-02-07 18:36:00,58.2,56.5,29.92,West,276,0.0,0.0,94,0.00,,---,0.01,VWS V14.01,2013-02-08 00:36:00,
2013-02-07 18:40:00,58.0,56.3,29.92,West,276,0.0,0.0,94,0.00,,---,0.01,VWS V14.01,2013-02-08 00:40:00,
2013-02-07 18:45:00,57.6,55.9,29.92,West,276,0.0,0.0,94,0.00,,---,0.01,VWS V14.01,2013-02-08 00:45:00,
2013-02-07 18:50:00,57.1,55.4,29.92,West,276,0.0,0.0,94,0.00,,---,0.01,VWS V14.01,2013-02-08 00:50:00,
2013-02-07 18:55:00,57.1,55.7,29.93,West,276,0.0,0.0,95,0.00,,---,0.01,VWS V14.01,2013-02-08 00:55:00,
2013-02-07 19:00:00,57.0,55.6,29.93,West,276,0.0,0.0,95,0.00,,---,0.01,VWS V14.01,2013-02-08 01:00:00,
2013-02-07 19:05:00,57.1,56.0,29.93,West,276,0.0,0.0,96,0.00,,---,0.01,VWS V14.01,2013-02-08 01:05:00,
2013-02-07 19:06:00,57.1,56.0,29.93,West,276,0.0,0.0,96,0.00,,---,0.01,VWS V14.01,2013-02-08 01:06:00,
2013-02-07 19:10:00,57.1,56.0,29.93,West,276,0.0,0.0,96,0.00,,---,0.01,VWS V14.01,2013-02-08 01:10:00,
2013-02-07 19:15:00,57.4,56.3,29.93,West,276,0.0,0.0,96,0.00,,---,0.01,VWS V14.01,2013-02-08 01:15:00,
2013-02-07 19:20:00,57.7,56.6,29.93,West,276,0.0,0.0,96,0.00,,---,0.01,VWS V14.01,2013-02-08 01:20:00,
2013-02-07 19:25:00,57.9,56.8,29.93,West,276,0.0,0.0,96,0.00,,---,0.01,VWS V14.01,2013-02-08 01:25:00,
2013-02-07 19:30:00,57.9,56.8,29.93,West,276,0.0,0.0,96,0.00,,---,0.01,VWS V14.01,2013-02-08 01:30:00,
2013-02-07 19:36:00,58.0,56.9,29.93,West,276,0.0,0.0,96,0.00,,---,0.01,VWS V14.01,2013-02-08 01:36:00,
2013-02-07 19:41:00,58.2,57.1,29.93,West,276,0.0,0.0,96,0.00,,---,0.01,VWS V14.01,2013-02-08 01:41:00,
2013-02-07 19:46:00,58.4,57.3,29.94,West,276,0.0,1.0,96,0.00,,---,0.01,VWS V14.01,2013-02-08 01:46:00,
2013-02-07 19:51:00,58.4,57.3,29.94,West,276,0.0,1.0,96,0.00,,---,0.01,VWS V14.01,2013-02-08 01:51:00,
2013-02-07 19:56:00,58.5,57.4,29.94,West,276,0.0,1.0,96,0.00,,---,0.01,VWS V14.01,2013-02-08 01:56:00,
2013-02-07 20:01:00,58.6,57.5,29.94,West,276,0.0,1.0,96,0.00,,---,0.01,VWS V14.01,2013-02-08 02:01:00,
2013-02-07 20:06:00,58.6,57.5,29.94,West,276,0.0,1.0,96,0.00,,---,0.01,VWS V14.01,2013-02-08 02:06:00,
2013-02-07 20:11:00,58.7,57.6,29.94,West,276,1.0,1.0,96,0.00,,---,0.01,VWS V14.01,2013-02-08 02:11:00,
2013-02-07 20:16:00,58.8,57.4,29.94,West,276,0.0,1.0,95,0.00,,---,0.01,VWS V14.01,2013-02-08 02:16:00,
2013-02-07 20:21:00,59.1,57.7,29.94,West,276,0.0,1.0,95,0.00,,---,0.01,VWS V14.01,2013-02-08 02:21:00,
2013-02-07 20:26:00,59.3,57.9,29.94,West,276,0.0,1.0,95,0.00,,---,0.01,VWS V14.01,2013-02-08 02:26:00,
2013-02-07 20:31:00,59.5,58.1,29.94,West,276,0.0,1.0,95,0.00,,---,0.01,VWS V14.01,2013-02-08 02:31:00,
2013-02-07 20:36:00,59.4,57.7,29.94,West,276,0.0,1.0,94,0.00,,---,0.01,VWS V14.01,2013-02-08 02:36:00,
2013-02-07 20:46:00,59.6,58.2,29.94,West,273,1.0,3.0,95,0.00,,---,0.01,VWS V14.01,2013-02-08 02:46:00,
2013-02-07 20:51:00,60.0,58.3,29.94,West,273,0.0,3.0,94,0.00,,---,0.01,VWS V14.01,2013-02-08 02:51:00,
2013-02-07 20:56:00,60.2,58.5,29.94,West,273,0.0,3.0,94,0.00,,---,0.01,VWS V14.01,2013-02-08 02:56:00,
2013-02-07 21:01:00,60.4,58.4,29.94,West,273,0.0,3.0,93,0.00,,---,0.01,VWS V14.01,2013-02-08 03:01:00,
2013-02-07 21:06:00,60.7,58.4,29.95,West,273,1.0,3.0,92,0.00,,---,0.01,VWS V14.01,2013-02-08 03:06:00,
2013-02-07 21:11:00,60.8,58.5,29.95,West,280,2.0,3.0,92,0.00,,---,0.01,VWS V14.01,2013-02-08 03:11:00,
2013-02-07 21:16:00,60.8,58.5,29.95,West,280,0.0,3.0,92,0.00,,---,0.01,VWS V14.01,2013-02-08 03:16:00,
2013-02-07 21:21:00,60.7,58.4,29.95,West,280,0.0,3.0,92,0.00,,---,0.01,VWS V14.01,2013-02-08 03:21:00,
2013-02-07 21:26:00,60.4,58.1,29.95,West,280,0.0,3.0,92,0.00,,---,0.01,VWS V14.01,2013-02-08 03:26:00,
2013-02-07 21:31:00,60.4,58.4,29.95,West,280,0.0,3.0,93,0.00,,---,0.01,VWS V14.01,2013-02-08 03:31:00,
2013-02-07 21:36:00,60.4,58.4,29.95,West,262,0.0,3.0,93,0.00,,---,0.01,VWS V14.01,2013-02-08 03:36:00,
2013-02-07 21:41:00,60.3,58.3,29.95,SSE,164,1.0,2.0,93,0.00,,---,0.01,VWS V14.01,2013-02-08 03:41:00,
2013-02-07 21:46:00,60.2,58.2,29.95,SSE,164,0.0,2.0,93,0.00,,---,0.01,VWS V14.01,2013-02-08 03:46:00,
2013-02-07 21:51:00,60.2,58.2,29.95,SSE,164,1.0,2.0,93,0.00,,---,0.01,VWS V14.01,2013-02-08 03:51:00,
2013-02-07 21:56:00,60.1,58.1,29.95,SSE,164,0.0,2.0,93,0.00,,---,0.01,VWS V14.01,2013-02-08 03:56:00,
2013-02-07 22:01:00,60.1,58.1,29.95,SSE,164,0.0,2.0,93,0.00,,---,0.01,VWS V14.01,2013-02-08 04:01:00,
2013-02-07 22:06:00,60.0,58.0,29.95,SSE,164,0.0,2.0,93,0.00,,---,0.01,VWS V14.01,2013-02-08 04:06:00,
2013-02-07 22:11:00,59.9,57.9,29.95,SSE,164,0.0,0.0,93,0.00,,---,0.01,VWS V14.01,2013-02-08 04:11:00,
2013-02-07 22:16:00,59.8,57.8,29.95,SSE,164,0.0,0.0,93,0.00,,---,0.01,VWS V14.01,2013-02-08 04:16:00,
2013-02-07 22:21:00,59.6,57.6,29.95,SSE,164,0.0,0.0,93,0.00,,---,0.01,VWS V14.01,2013-02-08 04:21:00,
2013-02-07 22:26:00,59.3,57.3,29.96,SSE,164,0.0,1.0,93,0.00,,---,0.01,VWS V14.01,2013-02-08 04:26:00,
2013-02-07 22:31:00,59.2,57.5,29.96,SSE,164,0.0,1.0,94,0.00,,---,0.01,VWS V14.01,2013-02-08 04:31:00,
2013-02-07 22:36:00,59.2,57.5,29.96,SSE,164,0.0,1.0,94,0.00,,---,0.01,VWS V14.01,2013-02-08 04:36:00,
2013-02-07 22:41:00,59.1,57.4,29.96,SSE,164,0.0,0.0,94,0.00,,---,0.01,VWS V14.01,2013-02-08 04:41:00,
2013-02-07 22:46:00,59.0,57.6,29.96,SSE,164,0.0,0.0,95,0.00,,---,0.01,VWS V14.01,2013-02-08 04:46:00,
2013-02-07 22:51:00,59.0,57.6,29.96,SSE,164,0.0,0.0,95,0.00,,---,0.01,VWS V14.01,2013-02-08 04:51:00,
2013-02-07 22:56:00,58.9,57.5,29.97,SSE,164,0.0,0.0,95,0.00,,---,0.01,VWS V14.01,2013-02-08 04:56:00,
2013-02-07 23:01:00,58.9,57.5,29.97,SSE,164,0.0,0.0,95,0.00,,---,0.01,VWS V14.01,2013-02-08 05:01:00,
2013-02-07 23:06:00,58.8,57.4,29.97,SSE,164,0.0,0.0,95,0.00,,---,0.01,VWS V14.01,2013-02-08 05:06:00,
2013-02-07 23:11:00,58.8,57.4,29.97,SSE,164,0.0,0.0,95,0.00,,---,0.01,VWS V14.01,2013-02-08 05:11:00,
2013-02-07 23:16:00,58.8,57.4,29.97,SSE,164,0.0,0.0,95,0.00,,---,0.01,VWS V14.01,2013-02-08 05:16:00,
2013-02-07 23:21:00,58.9,57.5,29.97,SSE,164,0.0,0.0,95,0.00,,---,0.01,VWS V14.01,2013-02-08 05:21:00,
2013-02-07 23:26:00,58.9,57.5,29.97,SSE,164,0.0,0.0,95,0.00,,---,0.01,VWS V14.01,2013-02-08 05:26:00,
2013-02-07 23:31:00,58.9,57.5,29.97,SSE,164,0.0,0.0,95,0.00,,---,0.01,VWS V14.01,2013-02-08 05:31:00,
2013-02-07 23:36:00,58.9,57.5,29.97,SSE,164,0.0,0.0,95,0.00,,---,0.01,VWS V14.01,2013-02-08 05:36:00,
2013-02-07 23:41:00,58.8,57.7,29.97,SSE,164,0.0,0.0,96,0.00,,---,0.01,VWS V14.01,2013-02-08 05:41:00,
2013-02-07 23:46:00,58.8,57.7,29.97,SSE,164,0.0,0.0,96,0.00,,---,0.01,VWS V14.01,2013-02-08 05:46:00,
2013-02-07 23:51:00,58.9,57.8,29.97,SSE,164,0.0,0.0,96,0.00,,---,0.01,VWS V14.01,2013-02-08 05:51:00,
2013-02-07 23:56:00,58.9,57.8,29.97,SSE,164,0.0,0.0,96,0.00,,---,0.01,VWS V14.01,2013-02-08 05:56:00,